createdAt,value
2022-11-17T00:01:58.304Z,80.50
2022-11-17T00:04:30.063Z,80.58
2022-11-17T00:07:01.689Z,80.55
2022-11-17T00:09:35.427Z,80.42
2022-11-17T00:12:28.463Z,80.47
2022-11-17T00:14:57.203Z,80.45
2022-11-17T00:17:27.810Z,80.57
2022-11-17T00:20:17.967Z,80.58
2022-11-17T00:22:50.515Z,80.53
2022-11-17T00:25:25.048Z,80.61
2022-11-17T00:27:58.870Z,80.76
2022-11-17T00:30:55.322Z,80.56
2022-11-17T00:33:41.542Z,80.49
2022-11-17T00:36:12.469Z,80.65
2022-11-17T00:38:44.504Z,80.62
2022-11-17T00:41:16.523Z,80.55
2022-11-17T00:43:49.560Z,81.19
2022-11-17T00:46:20.026Z,80.57
2022-11-17T00:48:50.718Z,80.48
2022-11-17T00:51:22.564Z,80.31
2022-11-17T00:53:54.647Z,80.49
2022-11-17T00:56:27.000Z,80.45
2022-11-17T00:58:59.441Z,80.26
2022-11-17T01:01:32.465Z,80.28
2022-11-17T01:04:04.172Z,80.30
2022-11-17T01:06:41.814Z,80.34
2022-11-17T01:09:23.046Z,80.40
2022-11-17T01:11:57.403Z,80.23
2022-11-17T01:14:31.900Z,80.15
2022-11-17T01:17:03.673Z,79.99
2022-11-17T01:19:34.460Z,80.13
2022-11-17T01:22:04.881Z,80.05
2022-11-17T01:24:38.665Z,80.15
2022-11-17T01:27:10.333Z,79.92
2022-11-17T01:29:47.425Z,79.86
2022-11-17T01:32:18.373Z,79.72
2022-11-17T01:34:48.982Z,79.96
2022-11-17T01:37:22.156Z,79.99
2022-11-17T01:39:52.670Z,80.02
2022-11-17T01:42:26.128Z,80.00
2022-11-17T01:45:24.691Z,79.92
2022-11-17T01:48:01.088Z,79.97
2022-11-17T01:50:46.917Z,79.98
2022-11-17T01:53:24.094Z,79.87
2022-11-17T01:55:59.565Z,80.01
2022-11-17T01:58:40.368Z,79.84
2022-11-17T02:01:14.059Z,79.82
2022-11-17T02:03:51.856Z,79.77
2022-11-17T02:06:28.071Z,79.92
2022-11-17T02:09:02.151Z,79.87
2022-11-17T02:11:36.056Z,79.67
2022-11-17T02:14:07.870Z,79.69
2022-11-17T02:16:40.877Z,79.69
2022-11-17T02:19:15.630Z,79.80
2022-11-17T02:22:20.466Z,79.89
2022-11-17T02:24:59.151Z,79.92
2022-11-17T02:27:41.636Z,79.99
2022-11-17T02:30:16.448Z,79.95
2022-11-17T02:33:07.988Z,80.06
2022-11-17T02:35:44.392Z,80.07
2022-11-17T02:38:36.003Z,80.07
2022-11-17T02:41:22.967Z,80.16
2022-11-17T02:44:06.016Z,80.55
2022-11-17T02:46:51.813Z,80.42
2022-11-17T02:49:34.045Z,80.17
2022-11-17T02:52:06.713Z,80.30
2022-11-17T02:54:37.329Z,80.23
2022-11-17T02:57:29.802Z,80.23
2022-11-17T03:00:04.656Z,80.22
2022-11-17T03:02:56.758Z,80.00
2022-11-17T03:05:48.450Z,80.02
2022-11-17T03:08:33.189Z,80.27
2022-11-17T03:11:11.904Z,80.26
2022-11-17T03:13:54.472Z,80.25
2022-11-17T03:16:40.084Z,80.16
2022-11-17T03:19:18.240Z,80.21
2022-11-17T03:22:09.911Z,80.17
2022-11-17T03:24:43.459Z,80.12
2022-11-17T03:27:19.370Z,80.12
2022-11-17T03:29:53.887Z,80.12
2022-11-17T03:32:27.031Z,80.24
2022-11-17T03:35:02.828Z,80.34
2022-11-17T03:37:37.635Z,80.34
2022-11-17T03:40:11.525Z,80.17
2022-11-17T03:42:50.142Z,80.14
2022-11-17T03:45:26.716Z,80.17
2022-11-17T03:48:02.947Z,80.30
2022-11-17T03:50:45.521Z,80.54
2022-11-17T03:53:18.931Z,80.45
2022-11-17T03:56:27.423Z,80.35
2022-11-17T03:59:04.482Z,80.22
2022-11-17T04:01:37.539Z,80.34
2022-11-17T04:04:10.925Z,80.40
2022-11-17T04:06:42.570Z,80.55
2022-11-17T04:09:14.754Z,80.40
2022-11-17T04:12:03.830Z,80.37
2022-11-17T04:14:52.392Z,80.51
2022-11-17T04:17:23.004Z,80.55
2022-11-17T04:19:53.844Z,80.54
2022-11-17T04:22:25.598Z,80.47
2022-11-17T04:24:56.136Z,80.83
2022-11-17T04:27:44.694Z,80.86
2022-11-17T04:30:16.019Z,80.80
2022-11-17T04:32:46.681Z,80.94
2022-11-17T04:35:17.202Z,80.88
2022-11-17T04:37:48.968Z,81.03
2022-11-17T04:40:19.563Z,81.12
2022-11-17T04:42:51.901Z,80.94
2022-11-17T04:45:23.781Z,81.23
2022-11-17T04:47:55.618Z,81.31
2022-11-17T04:50:26.582Z,81.36
2022-11-17T04:52:57.694Z,81.41
2022-11-17T04:55:28.318Z,81.53
2022-11-17T04:57:59.710Z,81.66
2022-11-17T05:00:34.084Z,81.39
2022-11-17T05:03:05.385Z,81.51
2022-11-17T05:05:36.873Z,81.32
2022-11-17T05:08:07.541Z,81.34
2022-11-17T05:10:58.713Z,81.01
2022-11-17T05:13:29.259Z,81.22
2022-11-17T05:16:19.734Z,81.46
2022-11-17T05:18:53.884Z,81.64
2022-11-17T05:21:23.752Z,81.55
2022-11-17T05:23:54.404Z,81.28
2022-11-17T05:26:28.998Z,81.47
2022-11-17T05:29:01.715Z,81.45
2022-11-17T05:31:32.832Z,81.43
2022-11-17T05:34:05.005Z,81.53
2022-11-17T05:36:35.944Z,81.37
2022-11-17T05:39:08.545Z,81.41
2022-11-17T05:41:40.891Z,81.15
2022-11-17T05:44:11.393Z,81.13
2022-11-17T05:46:41.893Z,81.05
2022-11-17T05:49:12.823Z,81.19
2022-11-17T05:51:43.433Z,81.26
2022-11-17T05:54:14.638Z,81.13
2022-11-17T05:57:00.390Z,81.29
2022-11-17T05:59:33.871Z,81.14
2022-11-17T06:02:29.334Z,81.50
2022-11-17T06:04:59.914Z,81.57
2022-11-17T06:07:30.908Z,81.54
2022-11-17T06:10:01.594Z,81.23
2022-11-17T06:12:33.129Z,81.06
2022-11-17T06:15:05.115Z,81.03
2022-11-17T06:17:41.665Z,81.03
2022-11-17T06:20:29.416Z,81.19
2022-11-17T06:23:04.673Z,81.37
2022-11-17T06:25:37.588Z,81.20
2022-11-17T06:28:11.600Z,81.37
2022-11-17T06:30:43.116Z,81.32
2022-11-17T06:33:16.936Z,81.28
2022-11-17T06:35:49.218Z,81.18
2022-11-17T06:38:21.252Z,81.16
2022-11-17T06:40:55.906Z,81.01
2022-11-17T06:43:29.595Z,80.97
2022-11-17T06:46:06.492Z,80.90
2022-11-17T06:48:39.307Z,80.77
2022-11-17T06:51:10.799Z,80.79
2022-11-17T06:53:43.024Z,80.83
2022-11-17T06:56:14.681Z,80.51
2022-11-17T06:58:45.484Z,80.53
2022-11-17T07:01:16.480Z,80.56
2022-11-17T07:03:46.958Z,80.49
2022-11-17T07:06:19.159Z,80.43
2022-11-17T07:08:53.472Z,80.30
2022-11-17T07:11:24.565Z,80.23
2022-11-17T07:13:55.295Z,80.22
2022-11-17T07:16:30.671Z,79.92
2022-11-17T07:19:08.239Z,80.11
2022-11-17T07:21:42.604Z,80.06
2022-11-17T07:24:14.368Z,79.87
2022-11-17T07:26:47.272Z,79.67
2022-11-17T07:29:19.217Z,79.54
2022-11-17T07:31:51.116Z,79.37
2022-11-17T07:34:23.020Z,79.36
2022-11-17T07:36:55.905Z,79.57
2022-11-17T07:39:27.232Z,79.40
2022-11-17T07:41:58.866Z,79.31
2022-11-17T07:44:30.939Z,79.30
2022-11-17T07:47:03.973Z,79.24
2022-11-17T07:49:36.393Z,79.12
2022-11-17T07:52:07.376Z,78.98
2022-11-17T07:54:39.321Z,78.88
2022-11-17T07:57:09.902Z,78.93
2022-11-17T07:59:48.861Z,78.77
2022-11-17T08:02:19.396Z,78.68
2022-11-17T08:04:49.982Z,78.58
2022-11-17T08:07:22.802Z,78.61
2022-11-17T08:09:55.375Z,78.19
2022-11-17T08:12:27.494Z,78.28
2022-11-17T08:14:59.420Z,78.29
2022-11-17T08:17:32.226Z,78.23
2022-11-17T08:20:04.347Z,78.17
2022-11-17T08:22:36.276Z,78.06
2022-11-17T08:25:08.548Z,78.12
2022-11-17T08:27:39.051Z,77.96
2022-11-17T08:30:12.993Z,77.98
2022-11-17T08:32:50.078Z,77.72
2022-11-17T08:35:26.412Z,77.61
2022-11-17T08:37:57.987Z,77.48
2022-11-17T08:40:28.599Z,77.72
2022-11-17T08:43:02.431Z,77.37
2022-11-17T08:45:34.356Z,77.35
2022-11-17T08:48:14.541Z,77.15
2022-11-17T08:50:45.275Z,77.50
2022-11-17T08:53:21.335Z,77.63
2022-11-17T08:55:52.700Z,77.31
2022-11-17T08:58:24.008Z,77.17
2022-11-17T09:00:54.698Z,77.04
2022-11-17T09:03:26.618Z,77.10
2022-11-17T09:05:57.306Z,77.18
2022-11-17T09:08:44.883Z,76.75
2022-11-17T09:11:11.464Z,77.06
2022-11-17T09:13:43.169Z,77.35
2022-11-17T09:16:14.543Z,77.74
2022-11-17T09:18:45.234Z,77.58
2022-11-17T09:21:17.201Z,77.70
2022-11-17T09:23:49.344Z,77.71
2022-11-17T09:26:22.281Z,77.87
2022-11-17T09:28:54.846Z,77.79
2022-11-17T09:31:27.432Z,77.99
2022-11-17T09:34:02.250Z,77.89
2022-11-17T09:36:33.029Z,78.19
2022-11-17T09:39:03.674Z,78.14
2022-11-17T09:41:49.461Z,78.09
2022-11-17T09:44:47.471Z,78.14
2022-11-17T09:47:30.383Z,77.89
2022-11-17T09:50:27.143Z,77.96
2022-11-17T09:53:17.651Z,78.02
2022-11-17T09:55:51.342Z,78.21
2022-11-17T09:58:40.054Z,78.27
2022-11-17T10:01:21.336Z,78.15
2022-11-17T10:03:56.027Z,77.95
2022-11-17T10:06:42.061Z,78.11
2022-11-17T10:09:36.867Z,78.03
2022-11-17T10:12:22.118Z,78.30
2022-11-17T10:14:55.343Z,78.29
2022-11-17T10:17:26.899Z,77.93
2022-11-17T10:19:58.849Z,77.81
2022-11-17T10:22:35.163Z,77.76
2022-11-17T10:25:08.716Z,77.83
2022-11-17T10:27:43.522Z,77.97
2022-11-17T10:30:24.691Z,77.90
2022-11-17T10:32:58.025Z,78.00
2022-11-17T10:35:35.224Z,78.22
2022-11-17T10:38:26.173Z,78.20
2022-11-17T10:41:00.524Z,77.97
2022-11-17T10:43:39.295Z,78.18
2022-11-17T10:46:17.381Z,78.05
2022-11-17T10:49:04.397Z,77.87
2022-11-17T10:51:37.112Z,77.78
2022-11-17T10:54:22.447Z,77.83
2022-11-17T10:56:55.996Z,77.84
2022-11-17T10:59:32.953Z,77.63
2022-11-17T11:02:38.135Z,77.57
2022-11-17T11:05:16.846Z,77.44
2022-11-17T11:07:48.854Z,77.44
2022-11-17T11:10:34.396Z,77.41
2022-11-17T11:13:34.965Z,77.44
2022-11-17T11:16:06.683Z,77.32
2022-11-17T11:18:38.322Z,77.31
2022-11-17T11:21:20.827Z,77.28
2022-11-17T11:24:05.421Z,77.21
2022-11-17T11:26:44.785Z,77.41
2022-11-17T11:29:42.345Z,77.27
2022-11-17T11:32:25.508Z,77.20
2022-11-17T11:35:17.364Z,77.09
2022-11-17T11:37:57.901Z,77.34
2022-11-17T11:40:35.280Z,77.37
2022-11-17T11:43:08.841Z,77.34
2022-11-17T11:45:57.561Z,77.36
2022-11-17T11:48:32.286Z,77.32
2022-11-17T11:51:22.059Z,77.30
2022-11-17T11:54:19.581Z,77.53
2022-11-17T11:56:52.470Z,77.25
2022-11-17T11:59:28.797Z,77.32
2022-11-17T12:02:16.581Z,77.09
2022-11-17T12:04:54.513Z,77.14
2022-11-17T12:07:46.751Z,77.30
2022-11-17T12:10:39.655Z,77.21
2022-11-17T12:13:16.842Z,77.08
2022-11-17T12:15:47.420Z,76.80
2022-11-17T12:18:23.138Z,76.75
2022-11-17T12:21:02.934Z,76.72
2022-11-17T12:23:56.728Z,76.84
2022-11-17T12:26:34.278Z,76.35
2022-11-17T12:29:28.957Z,76.73
2022-11-17T12:32:01.118Z,76.58
2022-11-17T12:34:36.349Z,76.72
2022-11-17T12:37:23.866Z,76.85
2022-11-17T12:40:05.139Z,76.68
2022-11-17T12:42:36.892Z,76.59
2022-11-17T12:45:09.695Z,76.74
2022-11-17T12:47:54.774Z,76.78
2022-11-17T12:50:39.567Z,76.77
2022-11-17T12:53:34.238Z,76.98
2022-11-17T12:56:10.329Z,76.98
2022-11-17T12:58:59.138Z,76.71
2022-11-17T13:01:53.922Z,76.64
2022-11-17T13:04:32.052Z,76.71
2022-11-17T13:07:08.278Z,76.64
2022-11-17T13:09:40.198Z,76.75
2022-11-17T13:12:12.183Z,76.38
2022-11-17T13:15:05.682Z,76.32
2022-11-17T13:17:42.875Z,76.55
2022-11-17T13:20:20.267Z,76.63
2022-11-17T13:23:01.857Z,76.57
2022-11-17T13:25:33.754Z,76.51
2022-11-17T13:28:05.909Z,76.39
2022-11-17T13:30:36.648Z,76.37
2022-11-17T13:33:10.077Z,76.67
2022-11-17T13:35:41.824Z,76.85
2022-11-17T13:38:23.444Z,76.83
2022-11-17T13:40:55.756Z,76.69
2022-11-17T13:43:29.407Z,76.62
2022-11-17T13:46:04.133Z,76.65
2022-11-17T13:48:39.927Z,76.61
2022-11-17T13:51:27.347Z,76.53
2022-11-17T13:54:17.116Z,76.43
2022-11-17T13:56:54.430Z,76.31
2022-11-17T13:59:28.292Z,76.36
2022-11-17T14:02:21.362Z,76.38
2022-11-17T14:05:10.324Z,76.50
2022-11-17T14:07:42.223Z,76.85
2022-11-17T14:10:26.445Z,76.96
2022-11-17T14:13:10.626Z,77.00
2022-11-17T14:15:49.134Z,76.76
2022-11-17T14:18:37.655Z,76.95
2022-11-17T14:21:19.961Z,77.06
2022-11-17T14:23:51.492Z,77.11
2022-11-17T14:26:34.719Z,77.20
2022-11-17T14:29:23.106Z,77.36
2022-11-17T14:31:55.131Z,77.49
2022-11-17T14:34:28.589Z,77.55
2022-11-17T14:37:01.960Z,77.33
2022-11-17T14:39:33.678Z,77.28
2022-11-17T14:42:04.491Z,77.28
2022-11-17T14:44:38.041Z,77.13
2022-11-17T14:47:10.053Z,77.03
2022-11-17T14:49:40.461Z,76.93
2022-11-17T14:52:11.113Z,76.96
2022-11-17T14:54:41.687Z,76.96
2022-11-17T14:57:14.723Z,77.21
2022-11-17T14:59:45.100Z,77.29
2022-11-17T15:02:20.473Z,77.06
2022-11-17T15:04:51.764Z,77.21
2022-11-17T15:07:24.161Z,77.66
2022-11-17T15:09:57.898Z,77.99
2022-11-17T15:12:34.166Z,78.61
2022-11-17T15:15:10.734Z,78.77
2022-11-17T15:17:43.546Z,79.03
2022-11-17T15:20:17.220Z,78.97
2022-11-17T15:22:49.356Z,79.05
2022-11-17T15:25:19.789Z,79.11
2022-11-17T15:27:54.018Z,79.08
2022-11-17T15:30:26.338Z,79.22
2022-11-17T15:32:58.667Z,79.00
2022-11-17T15:35:29.026Z,79.01
2022-11-17T15:38:00.619Z,79.21
2022-11-17T15:40:33.140Z,79.82
2022-11-17T15:43:08.282Z,80.03
2022-11-17T15:45:39.337Z,79.73
2022-11-17T15:48:13.661Z,79.40
2022-11-17T15:50:42.578Z,79.74
2022-11-17T15:53:13.208Z,79.66
2022-11-17T15:55:45.225Z,79.87
2022-11-17T15:58:16.812Z,80.06
2022-11-17T16:00:50.438Z,80.09
2022-11-17T16:03:20.965Z,80.25
2022-11-17T16:05:52.287Z,80.72
2022-11-17T16:08:27.907Z,80.37
2022-11-17T16:10:57.763Z,80.52
2022-11-17T16:13:31.735Z,80.52
2022-11-17T16:16:03.878Z,80.76
2022-11-17T16:18:38.752Z,80.70
2022-11-17T16:21:12.497Z,81.24
2022-11-17T16:23:47.798Z,81.42
2022-11-17T16:26:19.784Z,81.20
2022-11-17T16:28:53.596Z,81.87
2022-11-17T16:31:27.268Z,81.48
2022-11-17T16:34:04.453Z,82.33
2022-11-17T16:36:38.364Z,82.71
2022-11-17T16:39:13.433Z,82.58
2022-11-17T16:41:50.181Z,82.75
2022-11-17T16:44:21.088Z,82.44
2022-11-17T16:46:54.194Z,82.78
2022-11-17T16:49:25.804Z,82.81
2022-11-17T16:51:59.282Z,83.14
2022-11-17T16:54:29.943Z,83.18
2022-11-17T16:57:02.628Z,83.54
2022-11-17T16:59:34.762Z,83.68
2022-11-17T17:02:05.203Z,84.02
2022-11-17T17:04:35.572Z,84.11
2022-11-17T17:07:06.635Z,83.72
2022-11-17T17:09:41.857Z,83.78
2022-11-17T17:12:17.684Z,83.53
2022-11-17T17:14:49.132Z,83.67
2022-11-17T17:17:21.725Z,83.74
2022-11-17T17:19:52.532Z,83.70
2022-11-17T17:22:24.723Z,83.52
2022-11-17T17:24:58.098Z,83.25
2022-11-17T17:27:33.334Z,83.68
2022-11-17T17:30:07.887Z,83.64
2022-11-17T17:32:38.799Z,83.48
2022-11-17T17:35:13.736Z,83.78
2022-11-17T17:37:45.849Z,84.13
2022-11-17T17:40:16.637Z,84.43
2022-11-17T17:42:49.231Z,84.56
2022-11-17T17:45:21.295Z,84.63
2022-11-17T17:47:51.836Z,84.39
2022-11-17T17:50:25.999Z,84.37
2022-11-17T17:52:56.644Z,84.52
2022-11-17T17:55:30.654Z,84.63
2022-11-17T17:58:02.632Z,85.16
2022-11-17T18:00:34.199Z,85.13
2022-11-17T18:03:07.538Z,85.17
2022-11-17T18:05:40.077Z,85.14
2022-11-17T18:08:12.301Z,84.23
2022-11-17T18:10:44.400Z,84.40
2022-11-17T18:13:15.690Z,84.30
2022-11-17T18:15:53.907Z,84.46
2022-11-17T18:18:26.588Z,84.28
2022-11-17T18:21:06.162Z,84.63
2022-11-17T18:23:39.886Z,85.20
2022-11-17T18:26:16.713Z,85.03
2022-11-17T18:29:04.175Z,84.78
2022-11-17T18:31:40.330Z,85.43
2022-11-17T18:34:22.717Z,84.61
2022-11-17T18:36:56.029Z,84.80
2022-11-17T18:39:28.304Z,84.92
2022-11-17T18:42:01.878Z,84.87
2022-11-17T18:44:32.877Z,85.03
2022-11-17T18:47:05.381Z,84.55
2022-11-17T18:49:37.033Z,84.74
2022-11-17T18:52:12.958Z,84.88
2022-11-17T18:54:43.050Z,85.15
2022-11-17T18:57:17.267Z,84.92
2022-11-17T18:59:48.027Z,84.96
2022-11-17T19:02:18.719Z,84.96
2022-11-17T19:04:57.154Z,84.83
2022-11-17T19:07:24.013Z,85.07
2022-11-17T19:09:55.265Z,85.21
2022-11-17T19:12:26.483Z,84.83
2022-11-17T19:14:56.993Z,85.50
2022-11-17T19:17:30.290Z,85.41
2022-11-17T19:20:00.915Z,85.18
2022-11-17T19:22:35.443Z,84.95
2022-11-17T19:25:09.080Z,85.37
2022-11-17T19:27:40.196Z,85.66
2022-11-17T19:30:15.130Z,85.48
2022-11-17T19:32:47.572Z,85.19
2022-11-17T19:35:22.618Z,85.23
2022-11-17T19:37:53.338Z,85.49
2022-11-17T19:40:23.884Z,85.59
2022-11-17T19:42:55.749Z,85.73
2022-11-17T19:45:28.887Z,85.21
2022-11-17T19:48:02.181Z,85.42
2022-11-17T19:50:33.765Z,85.70
2022-11-17T19:53:04.255Z,85.40
2022-11-17T19:55:36.686Z,85.13
2022-11-17T19:58:07.235Z,85.17
2022-11-17T20:00:39.242Z,85.57
2022-11-17T20:03:09.689Z,84.99
2022-11-17T20:05:41.770Z,84.85
2022-11-17T20:08:13.314Z,84.86
2022-11-17T20:10:44.899Z,84.47
2022-11-17T20:13:17.557Z,84.34
2022-11-17T20:15:48.690Z,84.29
2022-11-17T20:18:19.508Z,84.13
2022-11-17T20:20:50.393Z,84.14
2022-11-17T20:23:22.612Z,84.32
2022-11-17T20:25:54.930Z,84.37
2022-11-17T20:28:25.405Z,84.05
2022-11-17T20:30:56.269Z,84.05
2022-11-17T20:33:31.444Z,83.70
2022-11-17T20:36:03.301Z,83.44
2022-11-17T20:38:35.415Z,83.65
2022-11-17T20:41:06.863Z,83.97
2022-11-17T20:43:39.003Z,84.34
2022-11-17T20:46:10.561Z,84.22
2022-11-17T20:48:42.094Z,83.77
2022-11-17T20:51:15.119Z,84.06
2022-11-17T20:53:46.306Z,83.78
2022-11-17T20:56:21.095Z,83.68
2022-11-17T20:58:51.529Z,83.36
2022-11-17T21:01:23.975Z,83.48
2022-11-17T21:03:54.687Z,83.67
2022-11-17T21:06:30.443Z,83.58
2022-11-17T21:09:01.258Z,83.20
2022-11-17T21:11:52.724Z,83.50
2022-11-17T21:14:26.446Z,83.48
2022-11-17T21:17:01.609Z,83.38
2022-11-17T21:19:36.518Z,83.89
2022-11-17T21:22:06.442Z,83.26
2022-11-17T21:24:39.656Z,83.12
2022-11-17T21:27:10.311Z,83.42
2022-11-17T21:29:42.366Z,83.16
2022-11-17T21:32:14.418Z,83.18
2022-11-17T21:34:49.918Z,82.54
2022-11-17T21:37:21.161Z,82.62
2022-11-17T21:39:52.599Z,83.00
2022-11-17T21:42:23.121Z,82.57
2022-11-17T21:44:55.489Z,82.33
2022-11-17T21:47:26.584Z,82.68
2022-11-17T21:49:56.987Z,82.77
2022-11-17T21:52:28.102Z,82.52
2022-11-17T21:55:00.447Z,82.75
2022-11-17T21:57:31.889Z,82.65
2022-11-17T22:00:03.898Z,82.98
2022-11-17T22:02:34.256Z,82.36
2022-11-17T22:05:07.874Z,82.75
2022-11-17T22:07:40.464Z,82.49
2022-11-17T22:10:12.464Z,82.32
2022-11-17T22:12:44.410Z,81.88
2022-11-17T22:15:16.930Z,82.15
2022-11-17T22:17:48.675Z,82.22
2022-11-17T22:20:20.688Z,82.21
2022-11-17T22:22:53.168Z,82.09
2022-11-17T22:25:44.288Z,82.45
2022-11-17T22:27:55.836Z,82.38
2022-11-17T22:30:26.261Z,82.50
2022-11-17T22:32:58.219Z,82.62
2022-11-17T22:35:28.640Z,82.96
2022-11-17T22:38:00.628Z,82.87
2022-11-17T22:40:31.295Z,82.62
2022-11-17T22:43:04.596Z,82.90
2022-11-17T22:45:39.196Z,82.76
2022-11-17T22:48:11.169Z,83.06
2022-11-17T22:50:44.041Z,82.98
2022-11-17T22:53:15.907Z,83.06
2022-11-17T22:55:46.537Z,82.97
2022-11-17T22:58:17.696Z,82.82
2022-11-17T23:00:49.709Z,82.93
2022-11-17T23:03:20.247Z,83.22
2022-11-17T23:05:50.988Z,83.35
2022-11-17T23:08:21.590Z,83.42
2022-11-17T23:11:08.988Z,83.52
2022-11-17T23:13:24.058Z,83.66
2022-11-17T23:15:55.128Z,83.52
2022-11-17T23:18:27.807Z,83.84
2022-11-17T23:20:58.201Z,84.13
2022-11-17T23:23:31.788Z,83.91
2022-11-17T23:26:04.280Z,84.11
2022-11-17T23:28:34.964Z,83.89
2022-11-17T23:31:07.900Z,84.07
2022-11-17T23:33:41.712Z,84.02
2022-11-17T23:36:18.458Z,84.33
2022-11-17T23:38:50.615Z,84.69
2022-11-17T23:41:22.263Z,84.54
2022-11-17T23:43:54.481Z,84.73
2022-11-17T23:46:27.296Z,84.57
2022-11-17T23:48:58.179Z,84.71
2022-11-17T23:51:29.930Z,84.86
2022-11-17T23:54:03.251Z,84.70
2022-11-17T23:56:35.170Z,84.90
2022-11-17T23:59:07.441Z,85.37
